sensor_id;sensor_type;location;lat;lon;timestamp;P1;durP1;ratioP1;P2;durP2;ratioP2
31836;SDS011;18401;49.344;6.240;2022-12-26T00:01:35;6.22;;;2.40;;
31836;SDS011;18401;49.344;6.240;2022-12-26T00:04:03;3.25;;;1.77;;
31836;SDS011;18401;49.344;6.240;2022-12-26T00:06:29;3.92;;;2.30;;
31836;SDS011;18401;49.344;6.240;2022-12-26T00:08:55;8.75;;;2.00;;
31836;SDS011;18401;49.344;6.240;2022-12-26T00:11:22;4.35;;;2.38;;
31836;SDS011;18401;49.344;6.240;2022-12-26T00:13:58;5.82;;;2.13;;
31836;SDS011;18401;49.344;6.240;2022-12-26T00:16:35;2.38;;;1.85;;
31836;SDS011;18401;49.344;6.240;2022-12-26T00:19:01;5.47;;;1.73;;
31836;SDS011;18401;49.344;6.240;2022-12-26T00:21:27;3.25;;;1.67;;
31836;SDS011;18401;49.344;6.240;2022-12-26T00:23:57;5.18;;;1.73;;
31836;SDS011;18401;49.344;6.240;2022-12-26T00:26:25;3.33;;;1.90;;
31836;SDS011;18401;49.344;6.240;2022-12-26T00:28:53;6.28;;;2.33;;
31836;SDS011;18401;49.344;6.240;2022-12-26T00:31:20;4.82;;;1.90;;
31836;SDS011;18401;49.344;6.240;2022-12-26T00:33:48;5.47;;;1.88;;
31836;SDS011;18401;49.344;6.240;2022-12-26T00:36:18;4.82;;;2.30;;
31836;SDS011;18401;49.344;6.240;2022-12-26T00:38:49;6.53;;;2.13;;
31836;SDS011;18401;49.344;6.240;2022-12-26T00:41:15;3.55;;;2.15;;
31836;SDS011;18401;49.344;6.240;2022-12-26T00:43:42;5.40;;;1.80;;
31836;SDS011;18401;49.344;6.240;2022-12-26T00:46:08;7.03;;;2.42;;
31836;SDS011;18401;49.344;6.240;2022-12-26T00:48:34;6.10;;;1.95;;
31836;SDS011;18401;49.344;6.240;2022-12-26T00:51:00;4.50;;;1.65;;
31836;SDS011;18401;49.344;6.240;2022-12-26T00:53:27;3.85;;;1.92;;
31836;SDS011;18401;49.344;6.240;2022-12-26T00:55:53;4.03;;;1.90;;
31836;SDS011;18401;49.344;6.240;2022-12-26T00:58:19;8.13;;;1.77;;
31836;SDS011;18401;49.344;6.240;2022-12-26T01:00:45;6.55;;;1.83;;
31836;SDS011;18401;49.344;6.240;2022-12-26T01:03:12;2.30;;;1.85;;
31836;SDS011;18401;49.344;6.240;2022-12-26T01:05:42;2.55;;;1.60;;
31836;SDS011;18401;49.344;6.240;2022-12-26T01:08:09;2.65;;;1.95;;
31836;SDS011;18401;49.344;6.240;2022-12-26T01:10:35;3.70;;;2.10;;
31836;SDS011;18401;49.344;6.240;2022-12-26T01:13:01;5.97;;;2.05;;
31836;SDS011;18401;49.344;6.240;2022-12-26T01:15:27;4.63;;;1.63;;
31836;SDS011;18401;49.344;6.240;2022-12-26T01:17:52;7.35;;;2.00;;
31836;SDS011;18401;49.344;6.240;2022-12-26T01:20:18;3.85;;;1.75;;
31836;SDS011;18401;49.344;6.240;2022-12-26T01:22:43;3.58;;;1.85;;
31836;SDS011;18401;49.344;6.240;2022-12-26T01:25:10;4.72;;;1.98;;
31836;SDS011;18401;49.344;6.240;2022-12-26T01:27:36;2.58;;;1.77;;
31836;SDS011;18401;49.344;6.240;2022-12-26T01:30:02;7.07;;;2.45;;
31836;SDS011;18401;49.344;6.240;2022-12-26T01:32:28;4.80;;;1.75;;
31836;SDS011;18401;49.344;6.240;2022-12-26T01:34:53;4.13;;;1.83;;
31836;SDS011;18401;49.344;6.240;2022-12-26T01:37:20;5.32;;;2.00;;
31836;SDS011;18401;49.344;6.240;2022-12-26T01:39:52;2.08;;;1.85;;
31836;SDS011;18401;49.344;6.240;2022-12-26T01:42:19;5.10;;;2.00;;
31836;SDS011;18401;49.344;6.240;2022-12-26T01:47:36;3.30;;;2.10;;
31836;SDS011;18401;49.344;6.240;2022-12-26T01:50:02;5.55;;;2.17;;
31836;SDS011;18401;49.344;6.240;2022-12-26T01:52:31;3.97;;;1.98;;
31836;SDS011;18401;49.344;6.240;2022-12-26T01:55:01;4.25;;;2.03;;
31836;SDS011;18401;49.344;6.240;2022-12-26T01:57:30;4.75;;;1.98;;
31836;SDS011;18401;49.344;6.240;2022-12-26T02:00:04;5.40;;;2.05;;
31836;SDS011;18401;49.344;6.240;2022-12-26T02:02:31;11.18;;;2.38;;
31836;SDS011;18401;49.344;6.240;2022-12-26T02:07:58;4.28;;;1.92;;
31836;SDS011;18401;49.344;6.240;2022-12-26T02:10:38;3.00;;;1.98;;
31836;SDS011;18401;49.344;6.240;2022-12-26T02:13:18;3.67;;;2.00;;
31836;SDS011;18401;49.344;6.240;2022-12-26T02:15:44;4.55;;;2.13;;
31836;SDS011;18401;49.344;6.240;2022-12-26T02:18:10;4.35;;;2.10;;
31836;SDS011;18401;49.344;6.240;2022-12-26T02:20:45;7.35;;;2.42;;
31836;SDS011;18401;49.344;6.240;2022-12-26T02:26:24;5.95;;;2.08;;
31836;SDS011;18401;49.344;6.240;2022-12-26T02:48:29;9.93;;;2.50;;
31836;SDS011;18401;49.344;6.240;2022-12-26T02:53:54;2.88;;;1.75;;
31836;SDS011;18401;49.344;6.240;2022-12-26T02:56:47;5.53;;;1.98;;
31836;SDS011;18401;49.344;6.240;2022-12-26T03:02:33;2.78;;;2.03;;
31836;SDS011;18401;49.344;6.240;2022-12-26T03:05:55;6.10;;;1.90;;
31836;SDS011;18401;49.344;6.240;2022-12-26T03:08:42;3.60;;;1.92;;
31836;SDS011;18401;49.344;6.240;2022-12-26T03:11:31;4.95;;;2.38;;
31836;SDS011;18401;49.344;6.240;2022-12-26T03:14:25;3.50;;;1.90;;
31836;SDS011;18401;49.344;6.240;2022-12-26T03:17:08;5.28;;;1.85;;
31836;SDS011;18401;49.344;6.240;2022-12-26T03:19:55;4.25;;;2.33;;
31836;SDS011;18401;49.344;6.240;2022-12-26T03:25:05;6.00;;;2.43;;
31836;SDS011;18401;49.344;6.240;2022-12-26T03:27:52;5.03;;;1.90;;
31836;SDS011;18401;49.344;6.240;2022-12-26T03:30:18;6.47;;;2.20;;
31836;SDS011;18401;49.344;6.240;2022-12-26T03:33:03;2.42;;;1.73;;
31836;SDS011;18401;49.344;6.240;2022-12-26T03:35:30;2.47;;;1.77;;
31836;SDS011;18401;49.344;6.240;2022-12-26T03:38:05;5.70;;;2.10;;
31836;SDS011;18401;49.344;6.240;2022-12-26T03:40:52;6.47;;;1.98;;
31836;SDS011;18401;49.344;6.240;2022-12-26T03:43:47;4.22;;;1.65;;
31836;SDS011;18401;49.344;6.240;2022-12-26T03:46:47;5.43;;;2.08;;
31836;SDS011;18401;49.344;6.240;2022-12-26T03:50:11;5.43;;;1.50;;
31836;SDS011;18401;49.344;6.240;2022-12-26T03:53:21;6.95;;;2.13;;
31836;SDS011;18401;49.344;6.240;2022-12-26T03:56:11;4.65;;;1.88;;
31836;SDS011;18401;49.344;6.240;2022-12-26T03:59:32;2.72;;;1.85;;
31836;SDS011;18401;49.344;6.240;2022-12-26T04:02:32;7.95;;;1.65;;
31836;SDS011;18401;49.344;6.240;2022-12-26T04:05:19;5.78;;;2.00;;
31836;SDS011;18401;49.344;6.240;2022-12-26T04:08:05;8.30;;;2.03;;
31836;SDS011;18401;49.344;6.240;2022-12-26T04:11:19;2.50;;;2.05;;
31836;SDS011;18401;49.344;6.240;2022-12-26T04:16:58;6.30;;;1.95;;
31836;SDS011;18401;49.344;6.240;2022-12-26T04:23:05;8.52;;;1.70;;
31836;SDS011;18401;49.344;6.240;2022-12-26T04:28:44;7.47;;;2.00;;
31836;SDS011;18401;49.344;6.240;2022-12-26T04:31:29;4.15;;;1.48;;
31836;SDS011;18401;49.344;6.240;2022-12-26T04:34:53;6.15;;;2.60;;
31836;SDS011;18401;49.344;6.240;2022-12-26T04:37:47;4.55;;;2.20;;
31836;SDS011;18401;49.344;6.240;2022-12-26T04:40:36;7.13;;;2.58;;
31836;SDS011;18401;49.344;6.240;2022-12-26T04:43:26;5.03;;;2.00;;
31836;SDS011;18401;49.344;6.240;2022-12-26T04:46:12;4.38;;;1.90;;
31836;SDS011;18401;49.344;6.240;2022-12-26T04:48:45;2.63;;;1.50;;
31836;SDS011;18401;49.344;6.240;2022-12-26T04:51:32;5.93;;;2.15;;
31836;SDS011;18401;49.344;6.240;2022-12-26T04:53:58;3.75;;;2.17;;
31836;SDS011;18401;49.344;6.240;2022-12-26T04:56:23;5.95;;;1.90;;
31836;SDS011;18401;49.344;6.240;2022-12-26T04:58:49;4.45;;;2.10;;
31836;SDS011;18401;49.344;6.240;2022-12-26T05:01:15;5.18;;;1.92;;
31836;SDS011;18401;49.344;6.240;2022-12-26T05:03:59;3.15;;;1.90;;
31836;SDS011;18401;49.344;6.240;2022-12-26T05:06:43;4.88;;;2.03;;
31836;SDS011;18401;49.344;6.240;2022-12-26T05:09:27;4.85;;;1.98;;
31836;SDS011;18401;49.344;6.240;2022-12-26T05:11:59;6.20;;;1.73;;
31836;SDS011;18401;49.344;6.240;2022-12-26T05:14:28;5.70;;;2.33;;
31836;SDS011;18401;49.344;6.240;2022-12-26T05:16:56;4.75;;;2.00;;
31836;SDS011;18401;49.344;6.240;2022-12-26T05:19:40;7.05;;;2.35;;
31836;SDS011;18401;49.344;6.240;2022-12-26T05:22:25;3.65;;;2.22;;
31836;SDS011;18401;49.344;6.240;2022-12-26T05:25:13;5.53;;;2.10;;
31836;SDS011;18401;49.344;6.240;2022-12-26T05:28:00;7.05;;;2.38;;
31836;SDS011;18401;49.344;6.240;2022-12-26T05:30:44;5.47;;;1.83;;
31836;SDS011;18401;49.344;6.240;2022-12-26T05:33:10;3.58;;;2.30;;
31836;SDS011;18401;49.344;6.240;2022-12-26T05:35:54;5.13;;;2.22;;
31836;SDS011;18401;49.344;6.240;2022-12-26T05:38:20;14.75;;;1.80;;
31836;SDS011;18401;49.344;6.240;2022-12-26T05:40:45;4.82;;;1.90;;
31836;SDS011;18401;49.344;6.240;2022-12-26T05:43:11;6.07;;;2.35;;
31836;SDS011;18401;49.344;6.240;2022-12-26T05:45:37;8.48;;;2.47;;
31836;SDS011;18401;49.344;6.240;2022-12-26T05:48:02;5.40;;;2.25;;
31836;SDS011;18401;49.344;6.240;2022-12-26T05:50:28;2.90;;;1.98;;
31836;SDS011;18401;49.344;6.240;2022-12-26T05:52:57;5.05;;;2.47;;
31836;SDS011;18401;49.344;6.240;2022-12-26T05:55:24;3.25;;;2.00;;
31836;SDS011;18401;49.344;6.240;2022-12-26T05:57:50;3.38;;;2.10;;
31836;SDS011;18401;49.344;6.240;2022-12-26T06:00:16;7.72;;;2.60;;
31836;SDS011;18401;49.344;6.240;2022-12-26T06:02:42;4.55;;;2.03;;
31836;SDS011;18401;49.344;6.240;2022-12-26T06:05:07;4.50;;;2.08;;
31836;SDS011;18401;49.344;6.240;2022-12-26T06:07:33;6.03;;;2.33;;
31836;SDS011;18401;49.344;6.240;2022-12-26T06:09:59;5.95;;;2.72;;
31836;SDS011;18401;49.344;6.240;2022-12-26T06:12:25;6.68;;;2.30;;
31836;SDS011;18401;49.344;6.240;2022-12-26T06:14:50;6.47;;;2.38;;
31836;SDS011;18401;49.344;6.240;2022-12-26T06:17:16;10.02;;;2.58;;
31836;SDS011;18401;49.344;6.240;2022-12-26T06:19:42;6.07;;;2.08;;
31836;SDS011;18401;49.344;6.240;2022-12-26T06:22:07;4.82;;;1.90;;
31836;SDS011;18401;49.344;6.240;2022-12-26T06:24:33;2.53;;;1.60;;
31836;SDS011;18401;49.344;6.240;2022-12-26T06:26:59;4.28;;;1.77;;
31836;SDS011;18401;49.344;6.240;2022-12-26T06:29:24;4.43;;;1.80;;
31836;SDS011;18401;49.344;6.240;2022-12-26T06:31:50;4.38;;;1.80;;
31836;SDS011;18401;49.344;6.240;2022-12-26T06:34:16;3.70;;;1.38;;
31836;SDS011;18401;49.344;6.240;2022-12-26T06:36:42;3.13;;;1.45;;
31836;SDS011;18401;49.344;6.240;2022-12-26T06:39:08;2.70;;;1.48;;
31836;SDS011;18401;49.344;6.240;2022-12-26T06:41:34;3.85;;;1.45;;
31836;SDS011;18401;49.344;6.240;2022-12-26T06:43:59;5.88;;;1.58;;
31836;SDS011;18401;49.344;6.240;2022-12-26T06:46:25;3.30;;;1.63;;
31836;SDS011;18401;49.344;6.240;2022-12-26T06:48:52;2.67;;;1.20;;
31836;SDS011;18401;49.344;6.240;2022-12-26T06:51:21;3.55;;;1.63;;
31836;SDS011;18401;49.344;6.240;2022-12-26T06:53:49;1.30;;;1.00;;
31836;SDS011;18401;49.344;6.240;2022-12-26T06:56:17;4.03;;;1.70;;
31836;SDS011;18401;49.344;6.240;2022-12-26T06:58:44;2.97;;;1.30;;
31836;SDS011;18401;49.344;6.240;2022-12-26T07:01:12;4.18;;;1.35;;
31836;SDS011;18401;49.344;6.240;2022-12-26T07:03:39;3.83;;;1.27;;
31836;SDS011;18401;49.344;6.240;2022-12-26T07:06:06;1.75;;;1.20;;
31836;SDS011;18401;49.344;6.240;2022-12-26T07:08:35;3.22;;;1.55;;
31836;SDS011;18401;49.344;6.240;2022-12-26T07:11:01;2.15;;;1.20;;
31836;SDS011;18401;49.344;6.240;2022-12-26T07:13:27;1.77;;;1.23;;
31836;SDS011;18401;49.344;6.240;2022-12-26T07:15:53;2.17;;;1.20;;
31836;SDS011;18401;49.344;6.240;2022-12-26T07:18:19;5.20;;;1.23;;
31836;SDS011;18401;49.344;6.240;2022-12-26T07:20:45;1.95;;;1.10;;
31836;SDS011;18401;49.344;6.240;2022-12-26T07:23:10;3.53;;;1.33;;
31836;SDS011;18401;49.344;6.240;2022-12-26T07:25:36;6.57;;;2.03;;
31836;SDS011;18401;49.344;6.240;2022-12-26T07:28:02;1.98;;;1.20;;
31836;SDS011;18401;49.344;6.240;2022-12-26T07:30:28;3.08;;;1.60;;
31836;SDS011;18401;49.344;6.240;2022-12-26T07:32:54;4.55;;;1.27;;
31836;SDS011;18401;49.344;6.240;2022-12-26T07:35:19;4.13;;;1.95;;
31836;SDS011;18401;49.344;6.240;2022-12-26T07:37:45;2.88;;;1.50;;
31836;SDS011;18401;49.344;6.240;2022-12-26T07:40:11;5.60;;;1.48;;
31836;SDS011;18401;49.344;6.240;2022-12-26T07:42:37;5.03;;;1.40;;
31836;SDS011;18401;49.344;6.240;2022-12-26T07:45:02;1.73;;;1.23;;
31836;SDS011;18401;49.344;6.240;2022-12-26T07:47:28;5.72;;;1.30;;
31836;SDS011;18401;49.344;6.240;2022-12-26T07:49:54;6.28;;;1.35;;
31836;SDS011;18401;49.344;6.240;2022-12-26T07:52:19;5.50;;;1.40;;
31836;SDS011;18401;49.344;6.240;2022-12-26T07:54:45;2.00;;;1.30;;
31836;SDS011;18401;49.344;6.240;2022-12-26T07:57:11;3.25;;;1.40;;
31836;SDS011;18401;49.344;6.240;2022-12-26T07:59:37;2.60;;;1.30;;
31836;SDS011;18401;49.344;6.240;2022-12-26T08:02:02;2.78;;;1.20;;
31836;SDS011;18401;49.344;6.240;2022-12-26T08:04:29;5.25;;;1.42;;
31836;SDS011;18401;49.344;6.240;2022-12-26T08:06:56;4.32;;;1.30;;
31836;SDS011;18401;49.344;6.240;2022-12-26T08:09:22;1.75;;;1.20;;
31836;SDS011;18401;49.344;6.240;2022-12-26T08:11:48;2.85;;;1.50;;
31836;SDS011;18401;49.344;6.240;2022-12-26T08:14:14;2.15;;;1.33;;
31836;SDS011;18401;49.344;6.240;2022-12-26T08:16:43;2.00;;;1.08;;
31836;SDS011;18401;49.344;6.240;2022-12-26T08:19:09;5.70;;;2.15;;
31836;SDS011;18401;49.344;6.240;2022-12-26T08:21:35;4.07;;;1.27;;
31836;SDS011;18401;49.344;6.240;2022-12-26T08:24:00;1.85;;;1.05;;
31836;SDS011;18401;49.344;6.240;2022-12-26T08:26:26;6.72;;;1.67;;
31836;SDS011;18401;49.344;6.240;2022-12-26T08:28:53;3.20;;;1.60;;
31836;SDS011;18401;49.344;6.240;2022-12-26T08:31:20;3.90;;;1.60;;
31836;SDS011;18401;49.344;6.240;2022-12-26T08:33:46;2.20;;;1.50;;
31836;SDS011;18401;49.344;6.240;2022-12-26T08:36:12;5.00;;;1.63;;
31836;SDS011;18401;49.344;6.240;2022-12-26T08:38:41;2.63;;;1.20;;
31836;SDS011;18401;49.344;6.240;2022-12-26T08:41:07;4.95;;;1.70;;
31836;SDS011;18401;49.344;6.240;2022-12-26T08:43:33;2.65;;;1.50;;
31836;SDS011;18401;49.344;6.240;2022-12-26T08:46:00;2.72;;;1.20;;
31836;SDS011;18401;49.344;6.240;2022-12-26T08:48:28;2.13;;;1.20;;
31836;SDS011;18401;49.344;6.240;2022-12-26T08:50:58;1.73;;;1.27;;
31836;SDS011;18401;49.344;6.240;2022-12-26T08:53:26;4.35;;;1.40;;
31836;SDS011;18401;49.344;6.240;2022-12-26T08:55:53;3.90;;;1.50;;
31836;SDS011;18401;49.344;6.240;2022-12-26T08:58:20;6.30;;;1.55;;
31836;SDS011;18401;49.344;6.240;2022-12-26T09:00:46;2.38;;;1.45;;
31836;SDS011;18401;49.344;6.240;2022-12-26T09:03:13;1.67;;;1.15;;
31836;SDS011;18401;49.344;6.240;2022-12-26T09:05:39;1.63;;;0.90;;
31836;SDS011;18401;49.344;6.240;2022-12-26T09:08:05;6.40;;;1.50;;
31836;SDS011;18401;49.344;6.240;2022-12-26T09:10:31;4.63;;;1.42;;
31836;SDS011;18401;49.344;6.240;2022-12-26T09:12:57;8.05;;;1.50;;
31836;SDS011;18401;49.344;6.240;2022-12-26T09:15:22;4.15;;;1.58;;
31836;SDS011;18401;49.344;6.240;2022-12-26T09:17:48;2.88;;;1.45;;
31836;SDS011;18401;49.344;6.240;2022-12-26T09:20:14;2.72;;;1.40;;
31836;SDS011;18401;49.344;6.240;2022-12-26T09:22:39;5.88;;;1.45;;
31836;SDS011;18401;49.344;6.240;2022-12-26T09:25:14;8.43;;;1.67;;
31836;SDS011;18401;49.344;6.240;2022-12-26T10:53:39;4.93;;;1.38;;
31836;SDS011;18401;49.344;6.240;2022-12-26T10:56:07;4.03;;;1.27;;
31836;SDS011;18401;49.344;6.240;2022-12-26T10:58:33;2.67;;;0.90;;
31836;SDS011;18401;49.344;6.240;2022-12-26T11:03:53;3.72;;;1.10;;
31836;SDS011;18401;49.344;6.240;2022-12-26T11:06:21;2.42;;;1.10;;
31836;SDS011;18401;49.344;6.240;2022-12-26T11:08:52;1.67;;;1.17;;
31836;SDS011;18401;49.344;6.240;2022-12-26T11:11:22;4.97;;;1.25;;
31836;SDS011;18401;49.344;6.240;2022-12-26T11:13:57;1.73;;;1.13;;
31836;SDS011;18401;49.344;6.240;2022-12-26T11:16:26;1.83;;;1.35;;
31836;SDS011;18401;49.344;6.240;2022-12-26T11:18:59;4.72;;;1.20;;
31836;SDS011;18401;49.344;6.240;2022-12-26T11:21:26;1.90;;;0.88;;
31836;SDS011;18401;49.344;6.240;2022-12-26T11:26:35;4.78;;;1.05;;
31836;SDS011;18401;49.344;6.240;2022-12-26T11:29:11;3.15;;;0.95;;
31836;SDS011;18401;49.344;6.240;2022-12-26T11:31:41;4.85;;;1.50;;
31836;SDS011;18401;49.344;6.240;2022-12-26T11:34:28;6.15;;;1.80;;
31836;SDS011;18401;49.344;6.240;2022-12-26T11:36:58;5.57;;;1.17;;
31836;SDS011;18401;49.344;6.240;2022-12-26T11:39:25;1.30;;;1.02;;
31836;SDS011;18401;49.344;6.240;2022-12-26T11:41:57;1.30;;;1.10;;
31836;SDS011;18401;49.344;6.240;2022-12-26T11:44:24;5.57;;;1.20;;
31836;SDS011;18401;49.344;6.240;2022-12-26T11:47:07;1.73;;;0.98;;
31836;SDS011;18401;49.344;6.240;2022-12-26T11:49:44;1.08;;;0.80;;
31836;SDS011;18401;49.344;6.240;2022-12-26T11:54:58;3.13;;;1.00;;
31836;SDS011;18401;49.344;6.240;2022-12-26T11:57:28;1.35;;;0.93;;
31836;SDS011;18401;49.344;6.240;2022-12-26T12:00:12;3.00;;;1.05;;
31836;SDS011;18401;49.344;6.240;2022-12-26T12:02:41;2.25;;;0.90;;
31836;SDS011;18401;49.344;6.240;2022-12-26T12:05:14;4.50;;;0.90;;
31836;SDS011;18401;49.344;6.240;2022-12-26T12:10:39;1.40;;;0.95;;
31836;SDS011;18401;49.344;6.240;2022-12-26T12:21:28;2.15;;;0.75;;
31836;SDS011;18401;49.344;6.240;2022-12-26T12:26:47;1.33;;;0.60;;
31836;SDS011;18401;49.344;6.240;2022-12-26T12:34:32;4.53;;;0.80;;
31836;SDS011;18401;49.344;6.240;2022-12-26T12:37:12;2.42;;;0.90;;
31836;SDS011;18401;49.344;6.240;2022-12-26T12:45:04;2.00;;;0.83;;
31836;SDS011;18401;49.344;6.240;2022-12-26T12:47:52;3.88;;;0.70;;
31836;SDS011;18401;49.344;6.240;2022-12-26T12:58:44;3.30;;;0.80;;
31836;SDS011;18401;49.344;6.240;2022-12-26T13:01:33;3.60;;;0.98;;
31836;SDS011;18401;49.344;6.240;2022-12-26T13:04:21;3.90;;;0.90;;
31836;SDS011;18401;49.344;6.240;2022-12-26T13:07:02;3.80;;;0.90;;
31836;SDS011;18401;49.344;6.240;2022-12-26T13:09:36;4.85;;;0.68;;
31836;SDS011;18401;49.344;6.240;2022-12-26T13:12:17;1.77;;;0.90;;
31836;SDS011;18401;49.344;6.240;2022-12-26T13:14:53;4.47;;;1.08;;
31836;SDS011;18401;49.344;6.240;2022-12-26T13:17:24;2.00;;;0.60;;
31836;SDS011;18401;49.344;6.240;2022-12-26T13:22:37;1.00;;;0.82;;
31836;SDS011;18401;49.344;6.240;2022-12-26T13:25:26;3.08;;;1.33;;
31836;SDS011;18401;49.344;6.240;2022-12-26T13:28:02;5.10;;;1.05;;
31836;SDS011;18401;49.344;6.240;2022-12-26T13:30:34;2.85;;;0.90;;
31836;SDS011;18401;49.344;6.240;2022-12-26T13:33:01;2.47;;;0.90;;
31836;SDS011;18401;49.344;6.240;2022-12-26T13:41:20;6.10;;;0.90;;
31836;SDS011;18401;49.344;6.240;2022-12-26T14:03:14;3.20;;;1.02;;
31836;SDS011;18401;49.344;6.240;2022-12-26T14:08:58;3.72;;;0.98;;
31836;SDS011;18401;49.344;6.240;2022-12-26T14:14:54;4.32;;;1.10;;
31836;SDS011;18401;49.344;6.240;2022-12-26T14:22:49;5.00;;;0.80;;
31836;SDS011;18401;49.344;6.240;2022-12-26T14:25:34;3.50;;;0.82;;
31836;SDS011;18401;49.344;6.240;2022-12-26T14:28:13;4.68;;;0.80;;
31836;SDS011;18401;49.344;6.240;2022-12-26T14:36:18;2.13;;;0.80;;
31836;SDS011;18401;49.344;6.240;2022-12-26T14:41:22;4.00;;;1.00;;
31836;SDS011;18401;49.344;6.240;2022-12-26T14:44:14;2.80;;;1.02;;
31836;SDS011;18401;49.344;6.240;2022-12-26T14:54:48;4.10;;;1.20;;
31836;SDS011;18401;49.344;6.240;2022-12-26T15:00:24;1.92;;;1.02;;
31836;SDS011;18401;49.344;6.240;2022-12-26T15:05:26;3.22;;;1.17;;
31836;SDS011;18401;49.344;6.240;2022-12-26T15:33:44;3.05;;;0.73;;
31836;SDS011;18401;49.344;6.240;2022-12-26T15:39:27;1.90;;;1.02;;
31836;SDS011;18401;49.344;6.240;2022-12-26T15:44:44;1.75;;;0.50;;
31836;SDS011;18401;49.344;6.240;2022-12-26T15:50:06;0.52;;;0.52;;
31836;SDS011;18401;49.344;6.240;2022-12-26T15:53:00;0.50;;;0.50;;
31836;SDS011;18401;49.344;6.240;2022-12-26T15:55:32;2.40;;;0.60;;
31836;SDS011;18401;49.344;6.240;2022-12-26T16:00:47;0.40;;;0.40;;
31836;SDS011;18401;49.344;6.240;2022-12-26T16:16:51;0.82;;;0.70;;
31836;SDS011;18401;49.344;6.240;2022-12-26T16:19:18;1.10;;;0.50;;
31836;SDS011;18401;49.344;6.240;2022-12-26T16:21:55;1.00;;;0.60;;
31836;SDS011;18401;49.344;6.240;2022-12-26T16:24:43;0.47;;;0.47;;
31836;SDS011;18401;49.344;6.240;2022-12-26T16:27:15;0.60;;;0.60;;
31836;SDS011;18401;49.344;6.240;2022-12-26T16:29:45;4.13;;;0.63;;
31836;SDS011;18401;49.344;6.240;2022-12-26T16:32:17;0.95;;;0.90;;
31836;SDS011;18401;49.344;6.240;2022-12-26T16:34:45;3.50;;;0.85;;
31836;SDS011;18401;49.344;6.240;2022-12-26T16:37:22;2.00;;;0.88;;
31836;SDS011;18401;49.344;6.240;2022-12-26T16:42:40;1.30;;;1.20;;
31836;SDS011;18401;49.344;6.240;2022-12-26T16:45:12;2.47;;;1.15;;
31836;SDS011;18401;49.344;6.240;2022-12-26T16:47:42;3.33;;;1.73;;
31836;SDS011;18401;49.344;6.240;2022-12-26T16:50:12;1.00;;;1.00;;
31836;SDS011;18401;49.344;6.240;2022-12-26T16:52:41;1.30;;;1.20;;
31836;SDS011;18401;49.344;6.240;2022-12-26T16:58:10;3.42;;;1.35;;
31836;SDS011;18401;49.344;6.240;2022-12-26T17:00:46;2.90;;;1.40;;
31836;SDS011;18401;49.344;6.240;2022-12-26T17:03:20;3.38;;;1.40;;
31836;SDS011;18401;49.344;6.240;2022-12-26T17:05:50;4.93;;;1.60;;
31836;SDS011;18401;49.344;6.240;2022-12-26T17:08:16;4.18;;;1.40;;
31836;SDS011;18401;49.344;6.240;2022-12-26T17:10:45;3.13;;;1.38;;
31836;SDS011;18401;49.344;6.240;2022-12-26T17:13:17;3.03;;;1.40;;
31836;SDS011;18401;49.344;6.240;2022-12-26T17:15:56;3.40;;;1.23;;
31836;SDS011;18401;49.344;6.240;2022-12-26T17:18:35;6.15;;;1.20;;
31836;SDS011;18401;49.344;6.240;2022-12-26T17:21:13;3.20;;;1.35;;
31836;SDS011;18401;49.344;6.240;2022-12-26T17:23:57;5.85;;;1.20;;
31836;SDS011;18401;49.344;6.240;2022-12-26T17:26:37;1.30;;;1.20;;
31836;SDS011;18401;49.344;6.240;2022-12-26T17:29:04;1.67;;;1.30;;
31836;SDS011;18401;49.344;6.240;2022-12-26T17:31:34;4.25;;;1.95;;
31836;SDS011;18401;49.344;6.240;2022-12-26T17:34:19;1.40;;;1.30;;
31836;SDS011;18401;49.344;6.240;2022-12-26T17:36:49;1.85;;;1.50;;
31836;SDS011;18401;49.344;6.240;2022-12-26T17:39:22;6.43;;;1.52;;
31836;SDS011;18401;49.344;6.240;2022-12-26T17:41:53;1.87;;;1.20;;
31836;SDS011;18401;49.344;6.240;2022-12-26T17:44:31;3.70;;;1.40;;
31836;SDS011;18401;49.344;6.240;2022-12-26T17:47:01;3.72;;;1.15;;
31836;SDS011;18401;49.344;6.240;2022-12-26T17:49:35;3.58;;;1.50;;
31836;SDS011;18401;49.344;6.240;2022-12-26T17:52:01;3.50;;;1.70;;
31836;SDS011;18401;49.344;6.240;2022-12-26T17:54:27;6.10;;;1.83;;
31836;SDS011;18401;49.344;6.240;2022-12-26T17:56:52;2.20;;;1.08;;
31836;SDS011;18401;49.344;6.240;2022-12-26T17:59:18;2.13;;;1.25;;
31836;SDS011;18401;49.344;6.240;2022-12-26T18:01:44;4.10;;;1.20;;
31836;SDS011;18401;49.344;6.240;2022-12-26T18:04:09;6.00;;;1.48;;
31836;SDS011;18401;49.344;6.240;2022-12-26T18:06:35;4.88;;;1.50;;
31836;SDS011;18401;49.344;6.240;2022-12-26T18:09:01;3.15;;;1.25;;
31836;SDS011;18401;49.344;6.240;2022-12-26T18:11:26;6.25;;;1.25;;
31836;SDS011;18401;49.344;6.240;2022-12-26T18:13:52;2.05;;;0.90;;
31836;SDS011;18401;49.344;6.240;2022-12-26T18:16:18;7.25;;;1.17;;
31836;SDS011;18401;49.344;6.240;2022-12-26T18:18:48;5.80;;;1.30;;
31836;SDS011;18401;49.344;6.240;2022-12-26T18:21:14;3.67;;;1.30;;
31836;SDS011;18401;49.344;6.240;2022-12-26T18:23:40;3.53;;;1.30;;
31836;SDS011;18401;49.344;6.240;2022-12-26T18:26:07;2.95;;;1.35;;
31836;SDS011;18401;49.344;6.240;2022-12-26T18:28:42;1.02;;;0.77;;
31836;SDS011;18401;49.344;6.240;2022-12-26T18:31:08;3.67;;;1.27;;
31836;SDS011;18401;49.344;6.240;2022-12-26T18:33:38;0.90;;;0.90;;
31836;SDS011;18401;49.344;6.240;2022-12-26T18:36:04;7.97;;;1.20;;
31836;SDS011;18401;49.344;6.240;2022-12-26T18:38:29;5.07;;;1.52;;
31836;SDS011;18401;49.344;6.240;2022-12-26T18:40:55;3.33;;;2.05;;
31836;SDS011;18401;49.344;6.240;2022-12-26T18:43:25;4.00;;;1.60;;
31836;SDS011;18401;49.344;6.240;2022-12-26T18:45:50;4.65;;;1.20;;
31836;SDS011;18401;49.344;6.240;2022-12-26T18:48:17;6.63;;;1.17;;
31836;SDS011;18401;49.344;6.240;2022-12-26T18:50:44;1.52;;;0.88;;
31836;SDS011;18401;49.344;6.240;2022-12-26T18:53:10;1.20;;;1.00;;
31836;SDS011;18401;49.344;6.240;2022-12-26T18:55:36;3.85;;;1.20;;
31836;SDS011;18401;49.344;6.240;2022-12-26T18:58:03;4.45;;;1.33;;
31836;SDS011;18401;49.344;6.240;2022-12-26T19:00:29;5.55;;;1.20;;
31836;SDS011;18401;49.344;6.240;2022-12-26T19:02:55;2.42;;;1.30;;
31836;SDS011;18401;49.344;6.240;2022-12-26T19:05:22;7.97;;;1.20;;
31836;SDS011;18401;49.344;6.240;2022-12-26T19:07:58;10.80;;;1.48;;
31836;SDS011;18401;49.344;6.240;2022-12-26T19:10:26;5.80;;;1.20;;
31836;SDS011;18401;49.344;6.240;2022-12-26T19:12:54;2.35;;;1.50;;
31836;SDS011;18401;49.344;6.240;2022-12-26T19:15:21;3.63;;;1.60;;
31836;SDS011;18401;49.344;6.240;2022-12-26T19:17:47;2.53;;;1.02;;
31836;SDS011;18401;49.344;6.240;2022-12-26T19:20:31;6.82;;;1.20;;
31836;SDS011;18401;49.344;6.240;2022-12-26T19:22:57;7.55;;;1.30;;
31836;SDS011;18401;49.344;6.240;2022-12-26T19:25:23;1.52;;;0.90;;
31836;SDS011;18401;49.344;6.240;2022-12-26T19:27:49;13.15;;;1.25;;
31836;SDS011;18401;49.344;6.240;2022-12-26T19:30:16;3.80;;;1.75;;
31836;SDS011;18401;49.344;6.240;2022-12-26T19:32:42;6.50;;;1.00;;
31836;SDS011;18401;49.344;6.240;2022-12-26T19:35:09;6.47;;;1.25;;
31836;SDS011;18401;49.344;6.240;2022-12-26T19:37:35;3.30;;;1.33;;
31836;SDS011;18401;49.344;6.240;2022-12-26T19:40:02;2.08;;;1.10;;
31836;SDS011;18401;49.344;6.240;2022-12-26T19:42:28;2.72;;;0.90;;
31836;SDS011;18401;49.344;6.240;2022-12-26T19:44:57;3.72;;;1.10;;
31836;SDS011;18401;49.344;6.240;2022-12-26T19:47:23;2.10;;;1.10;;
31836;SDS011;18401;49.344;6.240;2022-12-26T19:49:48;7.30;;;1.20;;
31836;SDS011;18401;49.344;6.240;2022-12-26T19:52:14;4.55;;;1.17;;
31836;SDS011;18401;49.344;6.240;2022-12-26T19:54:40;2.47;;;1.20;;
31836;SDS011;18401;49.344;6.240;2022-12-26T19:57:06;5.65;;;1.40;;
31836;SDS011;18401;49.344;6.240;2022-12-26T19:59:31;4.05;;;1.20;;
31836;SDS011;18401;49.344;6.240;2022-12-26T20:01:57;3.60;;;1.10;;
31836;SDS011;18401;49.344;6.240;2022-12-26T20:04:23;2.67;;;1.02;;
31836;SDS011;18401;49.344;6.240;2022-12-26T20:06:48;5.55;;;1.15;;